Saint Bride's, Canada
Current Conditions -  °F | °C
As of 4:00 PM on Sunday 21 Dec 2014 (Local Time) from CYYT Reporting Station
Overcast Overcast  
Wind Chill: 17°   Ceiling: 1600
Heat Index: 27°   Visibility: 15mi
Dew Point: 21°   Wind: 9mph
Humidity: 80%   Direction: 340°NNW
Pressure: 30.25"   Gusts: NA
Location:  46.92°N, 54.18°W
Report Text: CYYT 211900Z 34008KT 15SM OVC016 M03/M06 A3025 RMK SC8 SLP250
Loading
Personal Weather Stations






























Interactive Weather Map New forecast layout! Learn more

10-Day Weather Forecast

Advertisements
Track Severe Weather on mobile